Ashton, Arkansas
Current Conditions -  °F | °C
As of 1:53 AM on Friday 28 Nov 2014 (Local Time) from KGLH Reporting Station
Clear Clear  
Wind Chill: 30°   Ceiling: Unl
Heat Index: 30°   Visibility: 7mi
Dew Point: 29°   Wind: 0mph
Humidity: 96%   Direction: NA
Pressure: 30.43"   Gusts: NA
Location:  33.3324°N, 91.3183°W
Report Text: KGLH 280753Z AUTO 00000KT 7SM CLR M01/M02 A3043 RMK AO2 SLP313 T10111017
Loading
Personal Weather Stations






























Interactive Weather Map New forecast layout! Learn more

10-Day Weather Forecast

Advertisements
Track Severe Weather on mobile